createdAt,value
2022-08-19T00:02:16.573Z,13.20
2022-08-19T00:04:44.027Z,11.60
2022-08-19T00:07:11.469Z,12.20
2022-08-19T00:09:38.890Z,10.70
2022-08-19T00:12:06.806Z,10.50
2022-08-19T00:14:34.224Z,10.20
2022-08-19T00:17:03.989Z,11.50
2022-08-19T00:19:32.095Z,9.90
2022-08-19T00:22:00.016Z,10.80
2022-08-19T00:24:28.310Z,9.70
2022-08-19T00:26:57.615Z,10.70
2022-08-19T00:29:45.117Z,12.80
2022-08-19T00:32:13.287Z,12.00
2022-08-19T00:34:41.316Z,10.30
2022-08-19T00:37:08.873Z,10.90
2022-08-19T00:39:36.925Z,9.40
2022-08-19T00:42:04.714Z,10.30
2022-08-19T00:44:32.317Z,10.70
2022-08-19T00:47:01.178Z,11.40
2022-08-19T00:49:54.201Z,10.40
2022-08-19T00:52:36.616Z,10.10
2022-08-19T00:55:07.539Z,8.70
2022-08-19T00:57:41.214Z,10.60
2022-08-19T01:00:15.529Z,11.90
2022-08-19T01:02:44.400Z,11.10
2022-08-19T01:05:23.397Z,11.40
2022-08-19T01:07:52.030Z,11.70
2022-08-19T01:10:24.534Z,8.50
2022-08-19T01:12:53.558Z,10.30
2022-08-19T01:15:28.508Z,8.60
2022-08-19T01:17:58.786Z,8.30
2022-08-19T01:20:26.874Z,8.30
2022-08-19T01:22:58.693Z,8.40
2022-08-19T01:25:42.643Z,9.00
2022-08-19T01:28:33.653Z,8.80
2022-08-19T01:31:02.073Z,8.70
2022-08-19T01:33:35.799Z,9.40
2022-08-19T01:36:14.430Z,8.20
2022-08-19T01:38:44.628Z,9.60
2022-08-19T01:41:13.485Z,9.70
2022-08-19T01:44:03.855Z,9.90
2022-08-19T01:46:29.526Z,8.40
2022-08-19T01:48:57.611Z,9.50
2022-08-19T01:51:25.412Z,8.70
2022-08-19T01:53:53.639Z,9.60
2022-08-19T01:56:21.782Z,9.80
2022-08-19T01:58:58.415Z,8.10
2022-08-19T02:01:25.985Z,7.90
2022-08-19T02:04:01.839Z,9.90
2022-08-19T02:06:30.889Z,10.70
2022-08-19T02:08:58.537Z,9.90
2022-08-19T02:11:34.578Z,11.00
2022-08-19T02:14:06.751Z,11.50
2022-08-19T02:16:36.295Z,8.80
2022-08-19T02:19:04.943Z,10.20
2022-08-19T02:21:32.602Z,11.20
2022-08-19T02:24:00.274Z,9.80
2022-08-19T02:26:27.862Z,10.90
2022-08-19T02:28:56.696Z,10.80
2022-08-19T02:31:26.793Z,9.40
2022-08-19T02:33:56.900Z,13.70
2022-08-19T02:36:26.451Z,11.40
2022-08-19T02:38:55.553Z,10.90
2022-08-19T02:41:29.986Z,11.00
2022-08-19T02:44:26.423Z,10.90
2022-08-19T02:46:48.973Z,13.20
2022-08-19T02:49:19.439Z,12.20
2022-08-19T02:51:47.899Z,11.50
2022-08-19T02:54:16.456Z,14.10
2022-08-19T02:56:46.856Z,14.40
2022-08-19T02:59:14.669Z,12.50
2022-08-19T03:01:43.455Z,11.80
2022-08-19T03:04:16.657Z,13.10
2022-08-19T03:06:48.029Z,13.10
2022-08-19T03:09:16.282Z,10.80
2022-08-19T03:11:44.024Z,11.90
2022-08-19T03:14:12.419Z,11.30
2022-08-19T03:16:52.396Z,12.90
2022-08-19T03:19:22.354Z,11.20
2022-08-19T03:21:51.104Z,12.90
2022-08-19T03:24:19.881Z,10.80
2022-08-19T03:26:52.950Z,11.40
2022-08-19T03:29:30.841Z,10.90
2022-08-19T03:32:05.655Z,9.80
2022-08-19T03:34:37.338Z,10.00
2022-08-19T03:37:13.351Z,10.20
2022-08-19T03:39:43.240Z,12.30
2022-08-19T03:42:38.433Z,14.80
2022-08-19T03:44:59.989Z,12.20
2022-08-19T03:47:27.536Z,11.70
2022-08-19T03:49:55.041Z,13.20
2022-08-19T03:52:22.545Z,9.20
2022-08-19T03:54:49.945Z,10.50
2022-08-19T03:57:17.351Z,9.10
2022-08-19T03:59:45.183Z,8.30
2022-08-19T04:02:14.248Z,9.90
2022-08-19T04:04:44.746Z,12.50
2022-08-19T04:07:16.859Z,9.00
2022-08-19T04:09:44.944Z,8.50
2022-08-19T04:12:12.504Z,10.10
2022-08-19T04:14:40.649Z,12.10
2022-08-19T04:17:08.360Z,9.10
2022-08-19T04:19:37.053Z,11.30
2022-08-19T04:22:05.135Z,8.20
2022-08-19T04:24:32.685Z,9.30
2022-08-19T04:27:03.931Z,8.60
2022-08-19T04:29:31.592Z,7.20
2022-08-19T04:32:00.091Z,8.70
2022-08-19T04:35:02.274Z,8.00
2022-08-19T04:37:27.386Z,7.70
2022-08-19T04:40:15.291Z,8.20
2022-08-19T04:42:42.981Z,7.30
2022-08-19T04:45:15.551Z,6.60
2022-08-19T04:47:48.230Z,8.00
2022-08-19T04:50:27.780Z,7.60
2022-08-19T04:52:56.667Z,6.50
2022-08-19T04:55:26.677Z,8.30
2022-08-19T04:57:55.819Z,8.40
2022-08-19T05:00:23.923Z,8.90
2022-08-19T05:02:51.597Z,5.30
2022-08-19T05:05:19.418Z,9.40
2022-08-19T05:07:46.869Z,6.50
2022-08-19T05:10:14.584Z,7.60
2022-08-19T05:12:41.995Z,8.90
2022-08-19T05:15:10.252Z,6.40
2022-08-19T05:17:39.033Z,7.40
2022-08-19T05:20:27.326Z,5.00
2022-08-19T05:22:55.221Z,5.50
2022-08-19T05:25:23.386Z,6.20
2022-08-19T05:27:50.969Z,5.40
2022-08-19T05:30:18.814Z,4.80
2022-08-19T05:33:01.473Z,6.40
2022-08-19T05:35:29.453Z,5.40
2022-08-19T05:38:02.410Z,5.80
2022-08-19T05:40:30.165Z,5.00
2022-08-19T05:42:57.573Z,9.40
2022-08-19T05:45:25.696Z,5.20
2022-08-19T05:47:53.215Z,5.30
2022-08-19T05:50:21.641Z,5.10
2022-08-19T05:52:50.762Z,5.60
2022-08-19T05:55:21.266Z,6.30
2022-08-19T05:57:49.241Z,5.70
2022-08-19T06:00:20.345Z,5.30
2022-08-19T06:02:50.345Z,5.00
2022-08-19T06:05:17.987Z,4.20
2022-08-19T06:07:45.431Z,7.10
2022-08-19T06:10:13.067Z,4.90
2022-08-19T06:12:40.552Z,6.10
2022-08-19T06:15:14.444Z,5.10
2022-08-19T06:17:45.277Z,4.80
2022-08-19T06:20:15.946Z,4.60
2022-08-19T06:22:50.788Z,4.50
2022-08-19T06:25:18.972Z,4.60
2022-08-19T06:28:13.998Z,4.30
2022-08-19T06:30:34.577Z,4.50
2022-08-19T06:33:01.981Z,6.50
2022-08-19T06:35:30.569Z,5.00
2022-08-19T06:37:58.215Z,4.70
2022-08-19T06:40:28.011Z,5.40
2022-08-19T06:42:57.326Z,4.10
2022-08-19T06:45:35.507Z,5.80
2022-08-19T06:48:03.844Z,6.00
2022-08-19T06:50:31.512Z,4.80
2022-08-19T06:53:03.593Z,5.30
2022-08-19T06:55:33.365Z,7.40
2022-08-19T06:58:06.036Z,5.90
2022-08-19T07:00:34.138Z,3.90
2022-08-19T07:03:06.015Z,4.60
2022-08-19T07:05:33.805Z,5.70
2022-08-19T07:08:04.793Z,8.10
2022-08-19T07:10:33.838Z,4.10
2022-08-19T07:13:01.413Z,4.40
2022-08-19T07:15:28.947Z,3.50
2022-08-19T07:17:56.798Z,5.00
2022-08-19T07:20:28.590Z,3.50
2022-08-19T07:22:56.966Z,5.50
2022-08-19T07:25:32.498Z,5.40
2022-08-19T07:28:01.483Z,3.20
2022-08-19T07:30:29.254Z,3.50
2022-08-19T07:32:57.501Z,4.90
2022-08-19T07:35:25.932Z,4.00
2022-08-19T07:37:54.064Z,5.30
2022-08-19T07:40:21.993Z,2.80
2022-08-19T07:42:49.436Z,3.90
2022-08-19T07:45:17.310Z,3.80
2022-08-19T07:47:49.459Z,5.10
2022-08-19T07:50:21.367Z,5.30
2022-08-19T07:52:50.988Z,4.70
2022-08-19T07:55:42.321Z,4.50
2022-08-19T07:58:15.410Z,5.70
2022-08-19T08:00:44.661Z,3.60
2022-08-19T08:03:13.355Z,4.30
2022-08-19T08:05:59.702Z,3.60
2022-08-19T08:08:48.266Z,3.50
2022-08-19T08:11:20.568Z,3.80
2022-08-19T08:14:01.159Z,3.40
2022-08-19T08:16:39.705Z,4.90
2022-08-19T08:19:25.484Z,4.20
2022-08-19T08:21:57.875Z,4.90
2022-08-19T08:24:31.847Z,3.20
2022-08-19T08:27:01.749Z,4.00
2022-08-19T08:29:34.518Z,4.00
2022-08-19T08:32:14.887Z,3.30
2022-08-19T08:34:43.513Z,3.30
2022-08-19T08:37:10.975Z,3.70
2022-08-19T08:39:38.708Z,4.10
2022-08-19T08:42:28.809Z,3.20
2022-08-19T08:45:16.789Z,4.30
2022-08-19T08:47:49.669Z,2.40
2022-08-19T08:50:36.696Z,4.60
2022-08-19T08:53:07.257Z,3.50
2022-08-19T08:55:36.639Z,3.00
2022-08-19T08:58:18.299Z,3.40
2022-08-19T09:00:48.849Z,3.10
2022-08-19T09:03:31.657Z,4.20
2022-08-19T09:06:17.480Z,4.30
2022-08-19T09:09:11.893Z,4.00
2022-08-19T09:12:18.860Z,3.30
2022-08-19T09:15:06.782Z,5.50
2022-08-19T09:17:37.052Z,4.10
2022-08-19T09:20:21.304Z,4.70
2022-08-19T09:22:50.255Z,3.20
2022-08-19T09:25:26.634Z,4.10
2022-08-19T09:28:02.565Z,5.30
2022-08-19T09:30:37.674Z,4.70
2022-08-19T09:33:05.655Z,4.10
2022-08-19T09:35:49.504Z,5.30
2022-08-19T09:38:22.348Z,7.10
2022-08-19T09:40:51.136Z,4.00
2022-08-19T09:43:32.898Z,4.80
2022-08-19T09:46:02.486Z,5.70
2022-08-19T09:48:29.995Z,5.30
2022-08-19T09:51:05.574Z,4.00
2022-08-19T09:53:33.285Z,3.90
2022-08-19T09:56:04.175Z,4.20
2022-08-19T09:58:33.534Z,4.70
2022-08-19T10:01:05.924Z,4.60
2022-08-19T10:03:36.739Z,5.00
2022-08-19T10:06:14.623Z,8.00
2022-08-19T10:08:50.013Z,7.80
2022-08-19T10:11:27.529Z,4.40
2022-08-19T10:14:06.834Z,6.00
2022-08-19T10:16:39.457Z,4.80
2022-08-19T10:19:07.416Z,3.60
2022-08-19T10:21:35.410Z,4.60
2022-08-19T10:24:06.380Z,4.30
2022-08-19T10:26:38.260Z,3.70
2022-08-19T10:29:06.589Z,3.50
2022-08-19T10:31:59.958Z,6.20
2022-08-19T10:34:27.896Z,3.40
2022-08-19T10:37:01.104Z,4.00
2022-08-19T10:39:42.998Z,3.60
2022-08-19T10:42:14.749Z,6.40
2022-08-19T10:44:42.786Z,4.90
2022-08-19T10:47:17.306Z,3.80
2022-08-19T10:50:12.425Z,3.70
2022-08-19T10:52:49.760Z,3.30
2022-08-19T10:55:42.855Z,3.50
2022-08-19T10:58:23.236Z,5.80
2022-08-19T11:00:59.759Z,3.90
2022-08-19T11:03:31.707Z,4.50
2022-08-19T11:06:06.591Z,4.20
2022-08-19T11:08:36.102Z,4.20
2022-08-19T11:11:04.804Z,4.60
2022-08-19T11:13:37.782Z,3.20
2022-08-19T11:16:16.757Z,5.30
2022-08-19T11:18:50.858Z,4.20
2022-08-19T11:21:23.960Z,3.30
2022-08-19T11:23:56.344Z,4.50
2022-08-19T11:26:25.239Z,4.50
2022-08-19T11:28:55.389Z,3.20
2022-08-19T11:31:29.259Z,3.60
2022-08-19T11:34:00.648Z,3.70
2022-08-19T11:36:28.819Z,3.10
2022-08-19T11:38:56.601Z,5.00
2022-08-19T11:41:25.618Z,3.70
2022-08-19T11:43:56.212Z,4.00
2022-08-19T11:46:26.292Z,3.10
2022-08-19T11:48:53.776Z,3.20
2022-08-19T11:51:25.689Z,4.80
2022-08-19T11:53:56.371Z,4.90
2022-08-19T11:56:25.190Z,4.60
2022-08-19T11:58:54.371Z,4.50
2022-08-19T12:01:25.254Z,3.20
2022-08-19T12:03:55.359Z,5.00
2022-08-19T12:06:30.554Z,3.70
2022-08-19T12:09:08.411Z,4.00
2022-08-19T12:11:37.867Z,4.00
2022-08-19T12:14:05.975Z,4.70
2022-08-19T12:16:33.968Z,5.00
2022-08-19T12:19:05.200Z,3.80
2022-08-19T12:21:36.345Z,3.80
2022-08-19T12:24:06.817Z,4.00
2022-08-19T12:26:37.047Z,3.30
2022-08-19T12:29:23.861Z,4.40
2022-08-19T12:31:52.518Z,4.30
2022-08-19T12:34:21.188Z,3.90
2022-08-19T12:36:50.424Z,2.90
2022-08-19T12:39:18.370Z,4.50
2022-08-19T12:41:54.769Z,4.70
2022-08-19T12:44:29.530Z,3.80
2022-08-19T12:47:00.722Z,4.50
2022-08-19T12:49:53.921Z,3.60
2022-08-19T12:52:24.905Z,4.40
2022-08-19T12:54:55.605Z,3.80
2022-08-19T13:00:22.123Z,5.30
2022-08-19T13:02:52.859Z,5.30
2022-08-19T13:05:27.668Z,4.10
2022-08-19T13:07:58.296Z,5.10
2022-08-19T13:10:32.558Z,8.00
2022-08-19T13:13:00.684Z,4.50
2022-08-19T13:15:29.829Z,4.70
2022-08-19T13:17:57.523Z,4.50
2022-08-19T13:20:26.058Z,4.00
2022-08-19T13:22:55.106Z,4.30
2022-08-19T13:25:22.646Z,4.50
2022-08-19T13:27:51.934Z,5.10
2022-08-19T13:30:40.278Z,4.20
2022-08-19T13:33:17.286Z,4.00
2022-08-19T13:35:51.617Z,3.30
2022-08-19T13:38:21.992Z,4.60
2022-08-19T13:40:53.532Z,6.20
2022-08-19T13:43:25.538Z,4.00
2022-08-19T13:45:56.845Z,4.70
2022-08-19T13:48:27.805Z,3.70
2022-08-19T13:50:56.660Z,3.50
2022-08-19T13:53:24.718Z,4.70
2022-08-19T13:55:52.185Z,4.80
2022-08-19T13:58:19.720Z,5.00
2022-08-19T14:00:47.867Z,3.60
2022-08-19T14:03:17.869Z,3.00
2022-08-19T14:05:47.223Z,3.90
2022-08-19T14:08:15.262Z,6.20
2022-08-19T14:10:45.448Z,2.70
2022-08-19T14:13:18.340Z,4.90
2022-08-19T14:15:46.982Z,3.10
2022-08-19T14:18:16.513Z,5.00
2022-08-19T14:20:44.606Z,3.70
2022-08-19T14:23:13.794Z,3.80
2022-08-19T14:25:41.427Z,3.80
2022-08-19T14:28:09.146Z,4.30
2022-08-19T14:30:38.784Z,4.40
2022-08-19T14:33:08.239Z,6.60
2022-08-19T14:35:36.064Z,5.10
2022-08-19T14:38:08.319Z,3.40
2022-08-19T14:40:35.877Z,3.20
2022-08-19T14:43:05.505Z,3.10
2022-08-19T14:45:37.010Z,3.10
2022-08-19T14:48:06.956Z,4.40
2022-08-19T14:50:37.449Z,3.00
2022-08-19T14:53:11.945Z,2.60
2022-08-19T14:55:45.219Z,3.70
2022-08-19T14:58:28.901Z,4.20
2022-08-19T15:01:01.348Z,3.20
2022-08-19T15:03:30.079Z,3.20
2022-08-19T15:05:58.687Z,3.10
2022-08-19T15:08:27.939Z,3.00
2022-08-19T15:10:56.849Z,4.50
2022-08-19T15:13:25.986Z,2.40
2022-08-19T15:15:54.000Z,4.50
2022-08-19T15:18:22.805Z,3.10
2022-08-19T15:20:51.245Z,3.50
2022-08-19T15:23:21.250Z,3.10
2022-08-19T15:25:53.081Z,2.90
2022-08-19T15:28:20.580Z,3.20
2022-08-19T15:30:48.127Z,4.00
2022-08-19T15:33:15.624Z,4.20
2022-08-19T15:35:44.483Z,3.30
2022-08-19T15:38:13.985Z,4.50
2022-08-19T15:40:42.918Z,4.60
2022-08-19T15:43:10.801Z,3.40
2022-08-19T15:45:38.263Z,4.00
2022-08-19T15:48:06.530Z,3.10
2022-08-19T15:50:35.835Z,3.20
2022-08-19T15:53:10.438Z,3.90
2022-08-19T15:55:45.645Z,3.30
2022-08-19T15:58:33.053Z,3.00
2022-08-19T16:01:24.363Z,3.90
2022-08-19T16:04:16.040Z,4.00
2022-08-19T16:06:51.355Z,5.50
2022-08-19T16:09:26.633Z,3.00
2022-08-19T16:12:05.117Z,3.70
2022-08-19T16:14:35.496Z,3.40
2022-08-19T16:17:05.048Z,3.30
2022-08-19T16:19:33.385Z,7.40
2022-08-19T16:22:00.943Z,2.80
2022-08-19T16:24:29.025Z,2.50
2022-08-19T16:26:57.159Z,3.20
2022-08-19T16:29:34.725Z,3.80
2022-08-19T16:32:11.553Z,2.90
2022-08-19T16:34:41.375Z,3.90
2022-08-19T16:37:10.321Z,2.10
2022-08-19T16:39:38.338Z,3.10
2022-08-19T16:42:07.750Z,2.20
2022-08-19T16:44:41.352Z,2.50
2022-08-19T16:47:08.767Z,2.90
2022-08-19T16:49:53.589Z,5.60
2022-08-19T16:52:27.046Z,2.60
2022-08-19T16:54:55.011Z,3.40
2022-08-19T16:57:23.890Z,3.10
2022-08-19T16:59:52.422Z,3.40
2022-08-19T17:02:23.337Z,3.70
2022-08-19T17:04:58.303Z,2.20
2022-08-19T17:07:28.061Z,3.10
2022-08-19T17:09:56.659Z,3.90
2022-08-19T17:12:30.362Z,4.10
2022-08-19T17:15:02.627Z,2.40
2022-08-19T17:17:31.468Z,3.10
2022-08-19T17:20:01.211Z,3.50
2022-08-19T17:22:29.848Z,3.60
2022-08-19T17:24:58.099Z,3.80
2022-08-19T17:27:32.221Z,3.40
2022-08-19T17:30:02.736Z,4.70
2022-08-19T17:32:35.211Z,3.30
2022-08-19T17:35:04.827Z,4.20
2022-08-19T17:37:32.776Z,4.10
2022-08-19T17:40:03.999Z,4.30
2022-08-19T17:42:32.006Z,3.60
2022-08-19T17:44:59.680Z,3.00
2022-08-19T17:47:28.492Z,3.00
2022-08-19T17:49:56.827Z,3.10
2022-08-19T17:52:25.683Z,3.40
2022-08-19T17:54:53.266Z,3.80
2022-08-19T17:57:20.712Z,4.50
2022-08-19T17:59:48.677Z,4.90
2022-08-19T18:02:17.911Z,4.30
2022-08-19T18:04:49.585Z,6.00
2022-08-19T18:07:21.447Z,4.50
2022-08-19T18:09:52.538Z,4.80
2022-08-19T18:12:26.767Z,3.30
2022-08-19T18:14:55.935Z,4.80
2022-08-19T18:17:24.499Z,3.20
2022-08-19T18:19:52.202Z,3.50
2022-08-19T18:22:29.615Z,5.90
2022-08-19T18:24:58.612Z,3.40
2022-08-19T18:27:27.880Z,3.50
2022-08-19T18:29:59.451Z,3.10
2022-08-19T18:32:33.764Z,4.70
2022-08-19T18:35:06.736Z,5.20
2022-08-19T18:37:34.170Z,3.00
2022-08-19T18:40:20.090Z,3.60
2022-08-19T18:43:22.985Z,4.50
2022-08-19T18:46:10.085Z,5.00
2022-08-19T18:48:57.124Z,4.50
2022-08-19T18:51:28.421Z,6.40
2022-08-19T18:53:58.947Z,5.50
2022-08-19T18:56:29.361Z,5.20
2022-08-19T18:58:56.911Z,5.60
2022-08-19T19:01:35.351Z,5.20
2022-08-19T19:04:07.152Z,5.50
2022-08-19T19:06:40.356Z,4.50
2022-08-19T19:09:17.546Z,4.00
2022-08-19T19:11:50.390Z,6.90
2022-08-19T19:14:46.039Z,4.20
2022-08-19T19:17:14.939Z,4.50
2022-08-19T19:19:44.074Z,3.40
2022-08-19T19:22:20.185Z,4.00
2022-08-19T19:24:48.162Z,3.00
2022-08-19T19:27:20.966Z,3.30
2022-08-19T19:29:52.797Z,3.00
2022-08-19T19:32:26.390Z,2.70
2022-08-19T19:34:54.150Z,2.80
2022-08-19T19:37:22.598Z,2.20
2022-08-19T19:39:50.127Z,2.70
2022-08-19T19:42:22.726Z,2.50
2022-08-19T19:44:54.732Z,3.50
2022-08-19T19:47:28.491Z,2.80
2022-08-19T19:52:46.708Z,2.70
2022-08-19T19:55:18.234Z,3.60
2022-08-19T19:57:49.949Z,3.60
2022-08-19T20:00:19.092Z,4.00
2022-08-19T20:02:50.353Z,2.80
2022-08-19T20:05:23.090Z,2.70
2022-08-19T20:08:11.468Z,2.80
2022-08-19T20:10:41.226Z,3.40
2022-08-19T20:13:11.753Z,2.80
2022-08-19T20:15:42.771Z,2.50
2022-08-19T20:18:14.415Z,3.10
2022-08-19T20:20:43.552Z,3.20
2022-08-19T20:23:10.972Z,2.90
2022-08-19T20:25:39.406Z,3.00
2022-08-19T20:28:06.839Z,4.00
2022-08-19T20:30:34.514Z,2.80
2022-08-19T20:33:04.726Z,3.30
2022-08-19T20:35:35.443Z,3.40
2022-08-19T20:38:04.921Z,3.70
2022-08-19T20:40:34.172Z,2.60
2022-08-19T20:43:02.309Z,3.40
2022-08-19T20:45:33.583Z,3.10
2022-08-19T20:48:03.835Z,3.60
2022-08-19T20:50:35.266Z,4.10
2022-08-19T20:53:12.413Z,4.20
2022-08-19T20:55:42.446Z,2.70
2022-08-19T20:58:12.051Z,3.90
2022-08-19T21:00:42.170Z,3.30
2022-08-19T21:03:09.647Z,2.90
2022-08-19T21:05:37.143Z,4.20
2022-08-19T21:08:04.660Z,2.80
2022-08-19T21:10:32.975Z,3.00
2022-08-19T21:13:00.419Z,3.50
2022-08-19T21:15:27.869Z,3.30
2022-08-19T21:17:55.492Z,4.70
2022-08-19T21:20:23.356Z,4.20
2022-08-19T21:22:50.780Z,4.10
2022-08-19T21:25:18.391Z,5.10
2022-08-19T21:27:45.840Z,3.90
2022-08-19T21:30:14.123Z,4.10
2022-08-19T21:32:41.594Z,6.40
2022-08-19T21:35:09.298Z,5.60
2022-08-19T21:37:38.719Z,5.30
2022-08-19T21:40:08.509Z,5.80
2022-08-19T21:42:36.279Z,4.60
2022-08-19T21:45:05.833Z,6.70
2022-08-19T21:47:33.345Z,6.80
2022-08-19T21:50:00.792Z,9.10
2022-08-19T21:52:28.460Z,6.80
2022-08-19T21:54:56.222Z,4.00
2022-08-19T21:57:25.261Z,7.00
2022-08-19T21:59:53.460Z,5.90
2022-08-19T22:02:21.832Z,4.30
2022-08-19T22:04:51.750Z,4.60
2022-08-19T22:07:21.617Z,5.40
2022-08-19T22:09:51.569Z,5.90
2022-08-19T22:12:28.032Z,4.90
2022-08-19T22:14:56.831Z,3.80
2022-08-19T22:17:25.176Z,6.00
2022-08-19T22:19:52.859Z,3.30
2022-08-19T22:22:24.250Z,5.70
2022-08-19T22:24:53.499Z,6.40
2022-08-19T22:27:21.302Z,4.50
2022-08-19T22:29:52.409Z,7.20
2022-08-19T22:32:28.174Z,5.50
2022-08-19T22:35:00.635Z,8.40
2022-08-19T22:37:32.083Z,4.50
2022-08-19T22:40:03.272Z,5.50
2022-08-19T22:42:33.328Z,7.10
2022-08-19T22:45:00.887Z,6.60
2022-08-19T22:47:30.211Z,6.90
2022-08-19T22:50:05.489Z,7.10
2022-08-19T22:52:34.577Z,5.50
2022-08-19T22:55:06.402Z,10.10
2022-08-19T22:57:33.930Z,5.10
2022-08-19T23:00:01.578Z,9.00
2022-08-19T23:02:38.279Z,6.00
2022-08-19T23:05:10.856Z,6.80
2022-08-19T23:07:39.502Z,6.90
2022-08-19T23:10:10.069Z,8.20
2022-08-19T23:12:41.873Z,8.10
2022-08-19T23:15:14.955Z,4.70
2022-08-19T23:17:42.852Z,5.70
2022-08-19T23:20:15.308Z,6.60
2022-08-19T23:22:45.538Z,5.40
2022-08-19T23:25:20.125Z,8.20
2022-08-19T23:28:06.779Z,8.70
2022-08-19T23:30:40.418Z,7.30
2022-08-19T23:33:24.998Z,6.40
2022-08-19T23:36:00.026Z,6.10
2022-08-19T23:38:30.276Z,9.80
2022-08-19T23:41:01.915Z,9.00
2022-08-19T23:43:31.253Z,7.40
2022-08-19T23:46:10.483Z,9.60
2022-08-19T23:48:39.846Z,8.50
2022-08-19T23:51:11.156Z,7.70
2022-08-19T23:53:41.277Z,6.70
2022-08-19T23:56:11.192Z,7.90
2022-08-19T23:58:39.698Z,7.40
